Nathaniel B. Palmer — WBP3210 — position and weather

sailwx.info

Track history (hours):
 
Tides and Currents Weather Stations Pressure Air Temp Water Temp Dewpoint Dewpoint Depression Visibility Wind Speed Wind Dir Waves Ship Positions

Oceanographic research ship Nathaniel B. Palmer (USA)

Contact: Ethan Norris, ethan.norris.contractor@usap.gov

Detailed information on ship capabilities available from University of Delaware's Ocean Information Center and ARCUS's ALIAS (Arctic Logistics Information and Support) project.

Owner: OFFSHORE SERVICE VESSELS, GALLIANO, LA. More information available from US FCC via Universal Licensing System and Coast Guard Vessel Documentation Center.

Last reported at 2015-Aug-31 18:00 UTC. Time now 2015-Aug-31 19:52 UTC.
Position S 53°00' W 070°48'.

Type: Other ship. MMSI: 366610000.

Wind from 110 at 25 knots

Barometer 1017.0 mb
Air temperature 7.6 ° C
Water temperature 5.3 ° C

Date/timePositionNaut miles runAvg speedWind from/ knotsBaromVisibWave heightAir tempDewpointWater temp
2015-Aug-31 18:00S 53°00' W 070°48'0 0.0 110 / 251017.0 7.6 5.3
2015-Aug-31 16:00S 53°00' W 070°48'0 0.0 170 / 301015.4 7.4 5.3
2015-Aug-31 14:00S 53°00' W 070°48'0 0.0 350 / 271014.7 6.3 5.3
2015-Aug-31 12:00S 53°00' W 070°48'0 0.0 180 / 41015.1 5.0 5.3
2015-Aug-31 10:00S 53°00' W 070°48'0 0.0 100 / 21014.4 4.4 5.3
2015-Aug-31 08:00S 53°00' W 070°48'0 0.0 130 / 171012.5 4.9 5.3
2015-Aug-31 04:00S 53°00' W 070°48'0 0.0 030 / 151011.2 2.6 5.3
2015-Aug-31 02:00S 53°00' W 070°48'0 0.0 080 / 171009.3 1.9 5.3
2015-Aug-31 00:00S 53°00' W 070°48'0 0.0 050 / 141006.8 2.5 5.3
2015-Aug-30 22:00S 53°00' W 070°48'0 0.0 080 / 161003.7 2.4 5.3
2015-Aug-30 20:00S 53°00' W 070°48'0 0.0 360 / 18999.3 4.0 5.3
2015-Aug-30 18:00S 53°00' W 070°48'0 0.0 090 / 23996.8 1.6 5.3
2015-Aug-30 16:00S 53°00' W 070°48'0 0.0 190 / 24994.7 5.0 5.3
2015-Aug-30 14:00S 53°00' W 070°48'7 3.6 360 / 26992.1 4.7 5.3
2015-Aug-30 12:00S 53°00' W 070°36'2110.5 280 / 28992.3 5.2 5.3
2015-Aug-30 10:00S 52°42' W 070°18'7 3.5 270 / 27991.8 5.1 5.3
2015-Aug-30 08:00S 52°36' W 070°12'4410.9 270 / 27990.3 4.9 5.3
2015-Aug-30 04:00S 52°12' W 069°12'19 9.7 250 / 14986.0 4.4 5.3
2015-Aug-30 02:00S 52°18' W 068°42'16 7.9 300 / 12984.7 6.2 5.3
2015-Aug-30 00:00S 52°24' W 068°18'19 9.5 350 / 17984.4 5.0 5.3
2015-Aug-29 22:00S 52°36' W 067°54'19 9.4 030 / 11984.5 2.6 5.3
2015-Aug-29 20:00S 52°48' W 067°30'2210.9 360 / 11985.1 2.5 5.3
2015-Aug-29 18:00S 53°00' W 067°00'16 7.8 290 / 10984.8 4.4 5.3
2015-Aug-29 16:00S 53°06' W 066°36'19 9.4 310 / 12984.9 5.3 4.3
2015-Aug-29 14:00S 53°18' W 066°12'4010.0 330 / 10984.2 5.0 1.3
2015-Aug-29 10:00S 53°42' W 065°18'8911.1 280 / 7983.0 5.2 1.3
2015-Aug-29 02:00S 54°36' W 063°18'14 6.9 230 / 15981.2 5.3 1.3
2015-Aug-29 00:00S 54°48' W 063°06'2311.3 250 / 9980.5 5.6 1.3
2015-Aug-28 22:00S 55°06' W 062°42'16 7.9 360 / 11980.8 5.1 1.3
2015-Aug-28 20:00S 55°18' W 062°24'2110.3 020 / 17981.3 3.8 1.3
2015-Aug-28 18:00S 55°36' W 062°06'36 9.0 020 / 24982.3 3.9 1.3
2015-Aug-28 14:00S 56°06' W 061°30'2211.2 020 / 28985.9 2.0 1.3
2015-Aug-28 12:00S 56°24' W 061°06'16 7.8 010 / 28988.1 3.7 1.3
2015-Aug-28 10:00S 56°36' W 060°48'16 7.8 010 / 27989.8 3.6 1.3
2015-Aug-28 08:00S 56°48' W 060°30'4310.7 020 / 24991.7 2.9 1.3
2015-Aug-28 04:00S 57°24' W 059°48'4411.1 030 / 16995.4 -0.4 0.2
2015-Aug-28 00:00S 58°00' W 059°00'22 5.5 300 / 11997.6 -0.7 1.7
2015-Aug-27 20:00S 58°18' W 058°36'15 7.6 300 / 14996.6 -0.0 1.4
2015-Aug-27 18:00S 58°30' W 058°18'7 3.4 310 / 18996.6 0.2 1.2
2015-Aug-27 16:00S 58°36' W 058°12'17 8.7 330 / 23997.5 -0.2 1.2
2015-Aug-27 14:00S 58°48' W 057°48'2010.1 350 / 21998.1 -0.2 1.3
2015-Aug-27 12:00S 59°06' W 057°30'17 8.6 360 / 20999.0 -0.8 1.7
2015-Aug-27 10:00S 59°18' W 057°06'2210.9 350 / 16999.4 -1.2 1.7
2015-Aug-27 08:00S 59°36' W 056°42'20 5.0 360 / 161000.5 -1.3 1.9
2015-Aug-27 04:00S 59°54' W 056°24'12 6.0 360 / 131003.3 -1.1 1.8
2015-Aug-27 02:00S 60°06' W 056°24'7 3.4 350 / 121004.3 -1.0 1.7
2015-Aug-27 00:00S 60°12' W 056°18'6 3.0 010 / 121005.0 -1.2 1.7
2015-Aug-26 22:00S 60°18' W 056°18'12 6.2 010 / 111005.3 -1.3 1.8
2015-Aug-26 20:00S 60°30' W 056°24'6 3.0 360 / 141005.7 -1.6 1.8
2015-Aug-26 18:00S 60°36' W 056°24'12 6.2 190 / 141006.2 -1.5 1.8
2015-Aug-26 16:00S 60°48' W 056°18'6 3.0 020 / 141007.0 -1.9 1.7
2015-Aug-26 14:00S 60°54' W 056°18'11 2.7 350 / 111007.7 -2.4 1.9
2015-Aug-26 10:00S 61°00' W 056°00'11 5.3 320 / 141008.9 -2.9 1.8
2015-Aug-26 08:00S 60°54' W 055°42'18 4.6 150 / 91009.6 -3.5 1.7
2015-Aug-26 04:00S 60°36' W 055°36'18 9.0 290 / 91010.5 -4.0 1.8
2015-Aug-26 02:00S 60°18' W 055°36'6 3.0 280 / 171010.9 -2.7 1.7
2015-Aug-26 00:00S 60°12' W 055°36'6 3.0 290 / 141011.0 -2.8 1.8
2015-Aug-25 22:00S 60°06' W 055°36'12 6.0 220 / 181010.8 -2.8 1.8
2015-Aug-25 20:00S 59°54' W 055°36'6 3.0 300 / 141010.8 -2.6 1.7
2015-Aug-25 18:00S 59°54' W 055°24'15 7.5 280 / 171010.6 -2.8 1.8
2015-Aug-25 16:00S 59°54' W 054°54'6 3.0 260 / 221011.1 -3.2 1.5
2015-Aug-25 14:00S 60°00' W 054°54'6 3.0 270 / 191010.1 -4.9 1.8
2015-Aug-25 12:00S 60°06' W 054°54'12 6.2 170 / 181010.5 -5.2 1.6
2015-Aug-25 10:00S 60°18' W 054°48'12 6.2 260 / 191009.7 -3.9 1.7
2015-Aug-25 08:00S 60°30' W 054°54'16 4.0 270 / 201008.7 -5.2 1.7
2015-Aug-25 04:00S 60°36' W 054°24'12 6.0 230 / 221009.1 -5.4 1.4
2015-Aug-25 02:00S 60°24' W 054°24'18 9.0 270 / 221009.3 -5.1 1.6
2015-Aug-25 00:00S 60°06' W 054°24'8 4.2 290 / 171010.5 -4.5 1.6
2015-Aug-24 22:00S 60°00' W 054°12'11 5.4 260 / 181010.4 -4.5 1.5
2015-Aug-24 20:00S 59°54' W 053°54'6 3.0 290 / 171009.5 -3.4 1.3
2015-Aug-24 18:00S 60°00' W 053°54'6 3.0 260 / 151008.7 -3.8 1.5
2015-Aug-24 16:00S 60°06' W 053°54'18 9.0 250 / 141008.5 -3.1 1.4
2015-Aug-24 14:00S 60°24' W 053°54'6 3.0 250 / 131007.4 -2.3 1.4
2015-Aug-24 12:00S 60°30' W 053°54'6 3.0 250 / 81006.4 -2.9 1.5
2015-Aug-24 10:00S 60°36' W 053°54'12 6.0 120 / 181004.6 -4.1 1.4
2015-Aug-24 08:00S 60°48' W 053°54'20 5.0 240 / 191002.9 -4.8 1.6
2015-Aug-24 04:00S 61°06' W 053°36'7 3.3 240 / 25999.5 -4.8 1.8
2015-Aug-24 02:00S 61°12' W 053°42'7 3.3 260 / 30998.5 -3.9 1.9
2015-Aug-24 00:00S 61°18' W 053°48'8 4.2 310 / 25998.8 -4.9 1.7
2015-Aug-23 22:00S 61°24' W 054°00'11 5.7 280 / 17999.8 -4.0 1.8
2015-Aug-23 20:00S 61°24' W 054°24'12 6.0 110 / 191000.5 -6.7 1.9
2015-Aug-23 18:00S 61°12' W 054°24'8 4.2 320 / 71002.6 -7.0 1.8
2015-Aug-23 16:00S 61°06' W 054°36'8 4.2 330 / 51003.6 -6.7 1.8
2015-Aug-23 14:00S 61°12' W 054°48'0 0.0 050 / 31004.5 24.0-7.5 1.6
2015-Aug-23 12:00S 61°12' W 054°48'0 0.0 030 / 91005.0 24.0-8.7 1.6
2015-Aug-23 10:00S 61°12' W 054°48'0 0.0 030 / 41004.8 24.0-9.3 1.6
2015-Aug-23 08:00S 61°12' W 054°48'13 3.3 220 / 51004.8 -9.6 1.7
2015-Aug-23 04:00S 61°24' W 055°00'28 7.1 250 / 91004.0 -9.0 1.9
2015-Aug-23 00:00S 61°36' W 055°54'15 7.7 230 / 141003.0 1.9
2015-Aug-22 22:00S 61°42' W 056°24'13 6.4 240 / 161001.9 1.9
2015-Aug-22 20:00S 61°48' W 056°48'15 7.7 230 / 161001.8 1.9
2015-Aug-22 18:00S 61°54' W 057°18'15 7.7 240 / 161001.3 1.9
2015-Aug-22 16:00S 62°00' W 057°48'8 4.1 230 / 151001.4 1.8
2015-Aug-22 14:00S 62°06' W 058°00'13 6.4 250 / 131001.5 1.8
2015-Aug-22 12:00S 62°12' W 058°24'6 2.8 300 / 121001.7 1.9
2015-Aug-22 10:00S 62°12' W 058°36'0 0.0 300 / 141001.2 1.8
2015-Aug-22 08:00S 62°12' W 058°36'23 5.7 280 / 151000.9 1.8
2015-Aug-22 04:00S 62°30' W 059°06'15 7.5 250 / 19999.5 1.9
2015-Aug-22 02:00S 62°36' W 059°36'6 2.8 250 / 20999.6 1.9
2015-Aug-22 00:00S 62°36' W 059°48'12 6.0 330 / 19998.9 1.8
2015-Aug-21 22:00S 62°48' W 059°48'13 6.6 250 / 16998.2 1.8
2015-Aug-21 20:00S 63°00' W 060°00'8 4.0 240 / 20997.8 1.9
2015-Aug-21 18:00S 63°06' W 060°12'   280 / 18996.4 1.8
Track history (hours):
 
Tides and Currents Weather Stations Pressure Air Temp Water Temp Dewpoint Dewpoint Depression Visibility Wind Speed Wind Dir Waves Ship Positions

Oceanographic research ship Nathaniel B. Palmer (USA)

Contact: Ethan Norris, ethan.norris.contractor@usap.gov

Detailed information on ship capabilities available from University of Delaware's Ocean Information Center and ARCUS's ALIAS (Arctic Logistics Information and Support) project.

Owner: OFFSHORE SERVICE VESSELS, GALLIANO, LA. More information available from US FCC via Universal Licensing System and Coast Guard Vessel Documentation Center.

Last reported at 2015-Aug-31 18:00 UTC. Time now 2015-Aug-31 19:52 UTC.
Position S 53°00' W 070°48'.

Type: Other ship. MMSI: 366610000.

Wind from 110 at 25 knots

Barometer 1017.0 mb
Air temperature 7.6 ° C
Water temperature 5.3 ° C

Date/timePositionNaut miles runAvg speedWind from/ knotsBaromVisibWave heightAir tempDewpointWater temp
2015-Aug-31 18:00S 53°00' W 070°48'0 0.0 110 / 251017.0 7.6 5.3
2015-Aug-31 16:00S 53°00' W 070°48'0 0.0 170 / 301015.4 7.4 5.3
2015-Aug-31 14:00S 53°00' W 070°48'0 0.0 350 / 271014.7 6.3 5.3
2015-Aug-31 12:00S 53°00' W 070°48'0 0.0 180 / 41015.1 5.0 5.3
2015-Aug-31 10:00S 53°00' W 070°48'0 0.0 100 / 21014.4 4.4 5.3
2015-Aug-31 08:00S 53°00' W 070°48'0 0.0 130 / 171012.5 4.9 5.3
2015-Aug-31 04:00S 53°00' W 070°48'0 0.0 030 / 151011.2 2.6 5.3
2015-Aug-31 02:00S 53°00' W 070°48'0 0.0 080 / 171009.3 1.9 5.3
2015-Aug-31 00:00S 53°00' W 070°48'0 0.0 050 / 141006.8 2.5 5.3
2015-Aug-30 22:00S 53°00' W 070°48'0 0.0 080 / 161003.7 2.4 5.3
2015-Aug-30 20:00S 53°00' W 070°48'0 0.0 360 / 18999.3 4.0 5.3
2015-Aug-30 18:00S 53°00' W 070°48'0 0.0 090 / 23996.8 1.6 5.3
2015-Aug-30 16:00S 53°00' W 070°48'0 0.0 190 / 24994.7 5.0 5.3
2015-Aug-30 14:00S 53°00' W 070°48'7 3.6 360 / 26992.1 4.7 5.3
2015-Aug-30 12:00S 53°00' W 070°36'2110.5 280 / 28992.3 5.2 5.3
2015-Aug-30 10:00S 52°42' W 070°18'7 3.5 270 / 27991.8 5.1 5.3
2015-Aug-30 08:00S 52°36' W 070°12'4410.9 270 / 27990.3 4.9 5.3
2015-Aug-30 04:00S 52°12' W 069°12'19 9.7 250 / 14986.0 4.4 5.3
2015-Aug-30 02:00S 52°18' W 068°42'16 7.9 300 / 12984.7 6.2 5.3
2015-Aug-30 00:00S 52°24' W 068°18'19 9.5 350 / 17984.4 5.0 5.3
2015-Aug-29 22:00S 52°36' W 067°54'19 9.4 030 / 11984.5 2.6 5.3
2015-Aug-29 20:00S 52°48' W 067°30'2210.9 360 / 11985.1 2.5 5.3
2015-Aug-29 18:00S 53°00' W 067°00'16 7.8 290 / 10984.8 4.4 5.3
2015-Aug-29 16:00S 53°06' W 066°36'19 9.4 310 / 12984.9 5.3 4.3
2015-Aug-29 14:00S 53°18' W 066°12'4010.0 330 / 10984.2 5.0 1.3
2015-Aug-29 10:00S 53°42' W 065°18'8911.1 280 / 7983.0 5.2 1.3
2015-Aug-29 02:00S 54°36' W 063°18'14 6.9 230 / 15981.2 5.3 1.3
2015-Aug-29 00:00S 54°48' W 063°06'2311.3 250 / 9980.5 5.6 1.3
2015-Aug-28 22:00S 55°06' W 062°42'16 7.9 360 / 11980.8 5.1 1.3
2015-Aug-28 20:00S 55°18' W 062°24'2110.3 020 / 17981.3 3.8 1.3
2015-Aug-28 18:00S 55°36' W 062°06'36 9.0 020 / 24982.3 3.9 1.3
2015-Aug-28 14:00S 56°06' W 061°30'2211.2 020 / 28985.9 2.0 1.3
2015-Aug-28 12:00S 56°24' W 061°06'16 7.8 010 / 28988.1 3.7 1.3
2015-Aug-28 10:00S 56°36' W 060°48'16 7.8 010 / 27989.8 3.6 1.3
2015-Aug-28 08:00S 56°48' W 060°30'4310.7 020 / 24991.7 2.9 1.3
2015-Aug-28 04:00S 57°24' W 059°48'4411.1 030 / 16995.4 -0.4 0.2
2015-Aug-28 00:00S 58°00' W 059°00'22 5.5 300 / 11997.6 -0.7 1.7
2015-Aug-27 20:00S 58°18' W 058°36'15 7.6 300 / 14996.6 -0.0 1.4
2015-Aug-27 18:00S 58°30' W 058°18'7 3.4 310 / 18996.6 0.2 1.2
2015-Aug-27 16:00S 58°36' W 058°12'17 8.7 330 / 23997.5 -0.2 1.2
2015-Aug-27 14:00S 58°48' W 057°48'2010.1 350 / 21998.1 -0.2 1.3
2015-Aug-27 12:00S 59°06' W 057°30'17 8.6 360 / 20999.0 -0.8 1.7
2015-Aug-27 10:00S 59°18' W 057°06'2210.9 350 / 16999.4 -1.2 1.7
2015-Aug-27 08:00S 59°36' W 056°42'20 5.0 360 / 161000.5 -1.3 1.9
2015-Aug-27 04:00S 59°54' W 056°24'12 6.0 360 / 131003.3 -1.1 1.8
2015-Aug-27 02:00S 60°06' W 056°24'7 3.4 350 / 121004.3 -1.0 1.7
2015-Aug-27 00:00S 60°12' W 056°18'6 3.0 010 / 121005.0 -1.2 1.7
2015-Aug-26 22:00S 60°18' W 056°18'12 6.2 010 / 111005.3 -1.3 1.8
2015-Aug-26 20:00S 60°30' W 056°24'6 3.0 360 / 141005.7 -1.6 1.8
2015-Aug-26 18:00S 60°36' W 056°24'12 6.2 190 / 141006.2 -1.5 1.8
2015-Aug-26 16:00S 60°48' W 056°18'6 3.0 020 / 141007.0 -1.9 1.7
2015-Aug-26 14:00S 60°54' W 056°18'11 2.7 350 / 111007.7 -2.4 1.9
2015-Aug-26 10:00S 61°00' W 056°00'11 5.3 320 / 141008.9 -2.9 1.8
2015-Aug-26 08:00S 60°54' W 055°42'18 4.6 150 / 91009.6 -3.5 1.7
2015-Aug-26 04:00S 60°36' W 055°36'18 9.0 290 / 91010.5 -4.0 1.8
2015-Aug-26 02:00S 60°18' W 055°36'6 3.0 280 / 171010.9 -2.7 1.7
2015-Aug-26 00:00S 60°12' W 055°36'6 3.0 290 / 141011.0 -2.8 1.8
2015-Aug-25 22:00S 60°06' W 055°36'12 6.0 220 / 181010.8 -2.8 1.8
2015-Aug-25 20:00S 59°54' W 055°36'6 3.0 300 / 141010.8 -2.6 1.7
2015-Aug-25 18:00S 59°54' W 055°24'15 7.5 280 / 171010.6 -2.8 1.8
2015-Aug-25 16:00S 59°54' W 054°54'6 3.0 260 / 221011.1 -3.2 1.5
2015-Aug-25 14:00S 60°00' W 054°54'6 3.0 270 / 191010.1 -4.9 1.8
2015-Aug-25 12:00S 60°06' W 054°54'12 6.2 170 / 181010.5 -5.2 1.6
2015-Aug-25 10:00S 60°18' W 054°48'12 6.2 260 / 191009.7 -3.9 1.7
2015-Aug-25 08:00S 60°30' W 054°54'16 4.0 270 / 201008.7 -5.2 1.7
2015-Aug-25 04:00S 60°36' W 054°24'12 6.0 230 / 221009.1 -5.4 1.4
2015-Aug-25 02:00S 60°24' W 054°24'18 9.0 270 / 221009.3 -5.1 1.6
2015-Aug-25 00:00S 60°06' W 054°24'8 4.2 290 / 171010.5 -4.5 1.6
2015-Aug-24 22:00S 60°00' W 054°12'11 5.4 260 / 181010.4 -4.5 1.5
2015-Aug-24 20:00S 59°54' W 053°54'6 3.0 290 / 171009.5 -3.4 1.3
2015-Aug-24 18:00S 60°00' W 053°54'6 3.0 260 / 151008.7 -3.8 1.5
2015-Aug-24 16:00S 60°06' W 053°54'18 9.0 250 / 141008.5 -3.1 1.4
2015-Aug-24 14:00S 60°24' W 053°54'6 3.0 250 / 131007.4 -2.3 1.4
2015-Aug-24 12:00S 60°30' W 053°54'6 3.0 250 / 81006.4 -2.9 1.5
2015-Aug-24 10:00S 60°36' W 053°54'12 6.0 120 / 181004.6 -4.1 1.4
2015-Aug-24 08:00S 60°48' W 053°54'20 5.0 240 / 191002.9 -4.8 1.6
2015-Aug-24 04:00S 61°06' W 053°36'7 3.3 240 / 25999.5 -4.8 1.8
2015-Aug-24 02:00S 61°12' W 053°42'7 3.3 260 / 30998.5 -3.9 1.9
2015-Aug-24 00:00S 61°18' W 053°48'8 4.2 310 / 25998.8 -4.9 1.7
2015-Aug-23 22:00S 61°24' W 054°00'11 5.7 280 / 17999.8 -4.0 1.8
2015-Aug-23 20:00S 61°24' W 054°24'12 6.0 110 / 191000.5 -6.7 1.9
2015-Aug-23 18:00S 61°12' W 054°24'8 4.2 320 / 71002.6 -7.0 1.8
2015-Aug-23 16:00S 61°06' W 054°36'8 4.2 330 / 51003.6 -6.7 1.8
2015-Aug-23 14:00S 61°12' W 054°48'0 0.0 050 / 31004.5 24.0-7.5 1.6
2015-Aug-23 12:00S 61°12' W 054°48'0 0.0 030 / 91005.0 24.0-8.7 1.6
2015-Aug-23 10:00S 61°12' W 054°48'0 0.0 030 / 41004.8 24.0-9.3 1.6
2015-Aug-23 08:00S 61°12' W 054°48'13 3.3 220 / 51004.8 -9.6 1.7
2015-Aug-23 04:00S 61°24' W 055°00'28 7.1 250 / 91004.0 -9.0 1.9
2015-Aug-23 00:00S 61°36' W 055°54'15 7.7 230 / 141003.0 1.9
2015-Aug-22 22:00S 61°42' W 056°24'13 6.4 240 / 161001.9 1.9
2015-Aug-22 20:00S 61°48' W 056°48'15 7.7 230 / 161001.8 1.9
2015-Aug-22 18:00S 61°54' W 057°18'15 7.7 240 / 161001.3 1.9
2015-Aug-22 16:00S 62°00' W 057°48'8 4.1 230 / 151001.4 1.8
2015-Aug-22 14:00S 62°06' W 058°00'13 6.4 250 / 131001.5 1.8
2015-Aug-22 12:00S 62°12' W 058°24'6 2.8 300 / 121001.7 1.9
2015-Aug-22 10:00S 62°12' W 058°36'0 0.0 300 / 141001.2 1.8
2015-Aug-22 08:00S 62°12' W 058°36'23 5.7 280 / 151000.9 1.8
2015-Aug-22 04:00S 62°30' W 059°06'15 7.5 250 / 19999.5 1.9
2015-Aug-22 02:00S 62°36' W 059°36'6 2.8 250 / 20999.6 1.9
2015-Aug-22 00:00S 62°36' W 059°48'12 6.0 330 / 19998.9 1.8
2015-Aug-21 22:00S 62°48' W 059°48'13 6.6 250 / 16998.2 1.8
2015-Aug-21 20:00S 63°00' W 060°00'8 4.0 240 / 20997.8 1.9
2015-Aug-21 18:00S 63°06' W 060°12'   280 / 18996.4 1.8

Dump ship's entire track history